Time;durP1;ratioP1;P1;durP2;ratioP2;P2;SDS_P1;SDS_P2;PMS_P1;PMS_P2;Temp;Humidity;BMP_temperature;BMP_pressure;BME280_temperature;BME280_humidity;BME280_pressure;Samples;Min_cycle;Max_cycle;Signal;HPM_P1;HPM_P2
2023/03/09 00:01:21;;;;;;;1.17;0.70;;;;;;;;;;5071457;28;20418;-86
2023/03/09 00:03:47;;;;;;;1.15;0.75;;;;;;;;;;5072257;28;20395;-87
2023/03/09 00:06:14;;;;;;;1.08;0.80;;;;;;;;;;5072503;28;20445;-88
2023/03/09 00:08:40;;;;;;;0.80;0.80;;;;;;;;;;5061455;28;20396;-87
2023/03/09 00:11:07;;;;;;;0.70;0.60;;;;;;;;;;5062201;28;20409;-86
2023/03/09 00:13:33;;;;;;;0.60;0.60;;;;;;;;;;5066302;28;20380;-86
2023/03/09 00:16:07;;;;;;;0.65;0.50;;;;;;;;;;5069000;28;20451;-86
2023/03/09 00:18:33;;;;;;;0.68;0.45;;;;;;;;;;5070516;28;20364;-86
2023/03/09 00:20:59;;;;;;;0.50;0.50;;;;;;;;;;5056154;28;20370;-88
2023/03/09 00:23:25;;;;;;;0.50;0.50;;;;;;;;;;5059685;28;20735;-87
2023/03/09 00:25:51;;;;;;;0.93;0.57;;;;;;;;;;5066060;28;20390;-86
2023/03/09 00:28:17;;;;;;;2.40;0.90;;;;;;;;;;5069505;28;20380;-88
2023/03/09 00:30:43;;;;;;;1.80;0.80;;;;;;;;;;5055061;28;20917;-89
2023/03/09 00:33:09;;;;;;;0.70;0.60;;;;;;;;;;5055864;28;20394;-88
2023/03/09 00:35:35;;;;;;;0.77;0.77;;;;;;;;;;5062340;28;20383;-88
2023/03/09 00:38:01;;;;;;;0.80;0.80;;;;;;;;;;5067650;28;21311;-87
2023/03/09 00:40:27;;;;;;;0.90;0.50;;;;;;;;;;5069257;28;20371;-87
2023/03/09 00:42:53;;;;;;;0.90;0.80;;;;;;;;;;5041982;28;20735;-88
2023/03/09 00:45:21;;;;;;;1.33;0.90;;;;;;;;;;5057289;28;20377;-88
2023/03/09 00:47:47;;;;;;;0.90;0.80;;;;;;;;;;5064122;28;20437;-87
2023/03/09 00:50:13;;;;;;;0.70;0.70;;;;;;;;;;5055510;28;20393;-86
2023/03/09 00:52:39;;;;;;;1.02;0.60;;;;;;;;;;5059804;28;20412;-88
2023/03/09 00:55:05;;;;;;;1.70;0.82;;;;;;;;;;5051962;28;20419;-87
2023/03/09 00:57:31;;;;;;;0.70;0.60;;;;;;;;;;5062068;28;20457;-87
2023/03/09 00:59:57;;;;;;;1.15;0.70;;;;;;;;;;5070511;28;20379;-87
2023/03/09 01:02:24;;;;;;;1.33;0.68;;;;;;;;;;5066953;28;20387;-87
2023/03/09 01:04:50;;;;;;;1.02;0.60;;;;;;;;;;5066230;28;20392;-87
2023/03/09 01:07:17;;;;;;;1.30;0.65;;;;;;;;;;5060340;28;20383;-88
2023/03/09 01:09:43;;;;;;;0.77;0.57;;;;;;;;;;5070048;28;20776;-87
2023/03/09 01:12:09;;;;;;;2.97;0.80;;;;;;;;;;5053519;28;20492;-91
2023/03/09 01:14:35;;;;;;;2.17;1.00;;;;;;;;;;5061423;28;20397;-89
2023/03/09 01:17:01;;;;;;;1.23;0.70;;;;;;;;;;5058380;28;20384;-87
2023/03/09 01:19:28;;;;;;;1.65;0.90;;;;;;;;;;5070978;28;20380;-88
2023/03/09 01:21:54;;;;;;;2.28;0.90;;;;;;;;;;5070749;28;20481;-88
2023/03/09 01:24:20;;;;;;;2.05;1.00;;;;;;;;;;5071057;28;20384;-89
2023/03/09 01:26:46;;;;;;;2.70;1.10;;;;;;;;;;5070897;28;20386;-89
2023/03/09 01:29:12;;;;;;;1.42;1.23;;;;;;;;;;5070846;28;20384;-87
2023/03/09 01:31:38;;;;;;;1.50;1.02;;;;;;;;;;5070518;28;20419;-89
2023/03/09 01:34:04;;;;;;;1.95;1.10;;;;;;;;;;5070972;28;20394;-87
2023/03/09 01:36:30;;;;;;;1.85;1.20;;;;;;;;;;5070903;28;20380;-89
2023/03/09 01:38:56;;;;;;;2.08;1.25;;;;;;;;;;5070833;28;20441;-88
2023/03/09 01:41:22;;;;;;;1.40;1.30;;;;;;;;;;5060960;28;20466;-87
2023/03/09 01:43:49;;;;;;;2.38;1.20;;;;;;;;;;5070562;28;20387;-86
2023/03/09 01:46:33;;;;;;;1.90;1.30;;;;;;;;;;5051454;28;20886;-87
2023/03/09 01:49:08;;;;;;;1.90;1.30;;;;;;;;;;5056534;28;20892;-88
2023/03/09 01:51:47;;;;;;;1.20;1.10;;;;;;;;;;5056231;28;20401;-88
2023/03/09 01:54:17;;;;;;;1.75;0.90;;;;;;;;;;5064736;28;20368;-87
2023/03/09 01:56:44;;;;;;;3.85;0.77;;;;;;;;;;5073968;28;20372;-87
2023/03/09 01:59:11;;;;;;;1.50;0.70;;;;;;;;;;5074128;28;20384;-86
2023/03/09 02:01:37;;;;;;;1.05;0.80;;;;;;;;;;5074073;28;20424;-88
2023/03/09 02:04:08;;;;;;;1.23;0.80;;;;;;;;;;5074063;28;20387;-87
2023/03/09 02:06:34;;;;;;;0.80;0.73;;;;;;;;;;5073997;28;20388;-88
2023/03/09 02:09:06;;;;;;;1.98;0.80;;;;;;;;;;5062775;28;20383;-87
2023/03/09 02:11:33;;;;;;;1.93;0.90;;;;;;;;;;5070501;28;20404;-87
2023/03/09 02:14:00;;;;;;;2.13;0.90;;;;;;;;;;5063456;28;20415;-88
2023/03/09 02:16:26;;;;;;;1.67;0.83;;;;;;;;;;5072722;28;20380;-88
2023/03/09 02:18:52;;;;;;;1.80;0.90;;;;;;;;;;5072821;28;20379;-88
2023/03/09 02:21:36;;;;;;;2.80;1.02;;;;;;;;;;5072631;28;20380;-87
2023/03/09 02:24:02;;;;;;;1.90;1.00;;;;;;;;;;5072502;28;20462;-89
2023/03/09 02:26:28;;;;;;;0.88;0.65;;;;;;;;;;5072600;28;20437;-87
2023/03/09 02:28:54;;;;;;;2.40;0.80;;;;;;;;;;5073683;28;20384;-87
2023/03/09 02:31:20;;;;;;;1.80;0.70;;;;;;;;;;5073280;28;20443;-86
2023/03/09 02:33:47;;;;;;;2.08;0.82;;;;;;;;;;5073421;28;20852;-87
2023/03/09 02:36:13;;;;;;;1.70;0.90;;;;;;;;;;5073483;28;20497;-86
2023/03/09 02:38:39;;;;;;;1.95;0.93;;;;;;;;;;5073479;28;20406;-87
2023/03/09 02:41:08;;;;;;;2.00;1.00;;;;;;;;;;5073429;28;20431;-87
2023/03/09 02:43:36;;;;;;;1.42;1.10;;;;;;;;;;5073284;28;20379;-87
2023/03/09 02:46:02;;;;;;;1.10;1.00;;;;;;;;;;5073270;28;20371;-87
2023/03/09 02:48:28;;;;;;;1.42;1.20;;;;;;;;;;5072147;28;20380;-87
2023/03/09 02:50:54;;;;;;;1.38;1.00;;;;;;;;;;5070542;28;20383;-88
2023/03/09 02:53:21;;;;;;;1.30;1.20;;;;;;;;;;5049453;28;20882;-86
2023/03/09 02:55:47;;;;;;;1.40;1.13;;;;;;;;;;5044202;28;20888;-87
2023/03/09 02:58:13;;;;;;;1.48;1.15;;;;;;;;;;5048122;28;20376;-87
2023/03/09 03:00:39;;;;;;;1.48;1.10;;;;;;;;;;5044653;28;20384;-87
2023/03/09 03:03:04;;;;;;;1.90;1.00;;;;;;;;;;5046977;28;20476;-86
2023/03/09 03:05:30;;;;;;;1.17;0.87;;;;;;;;;;5047849;28;20393;-86
2023/03/09 03:07:56;;;;;;;1.50;1.00;;;;;;;;;;5051914;28;20429;-87
2023/03/09 03:10:23;;;;;;;1.10;0.80;;;;;;;;;;5047515;28;20717;-86
2023/03/09 03:12:49;;;;;;;1.00;0.70;;;;;;;;;;5043113;28;20890;-88
2023/03/09 03:15:15;;;;;;;1.10;0.73;;;;;;;;;;5048409;28;20405;-87
2023/03/09 03:17:41;;;;;;;1.05;0.75;;;;;;;;;;5044788;28;20371;-88
2023/03/09 03:20:12;;;;;;;2.58;0.82;;;;;;;;;;5047104;28;20394;-88
2023/03/09 03:22:38;;;;;;;2.05;0.65;;;;;;;;;;5057074;28;20438;-89
2023/03/09 03:25:04;;;;;;;1.98;0.73;;;;;;;;;;5051643;28;20391;-89
2023/03/09 03:27:32;;;;;;;2.00;0.80;;;;;;;;;;5039761;28;20457;-89
2023/03/09 03:29:58;;;;;;;1.50;0.73;;;;;;;;;;5040784;28;20420;-89
2023/03/09 03:32:24;;;;;;;1.92;1.00;;;;;;;;;;5050188;28;20399;-90
2023/03/09 03:34:50;;;;;;;1.70;0.85;;;;;;;;;;5072689;28;20399;-89
2023/03/09 03:37:17;;;;;;;1.67;0.90;;;;;;;;;;5073062;28;20409;-89
2023/03/09 03:39:43;;;;;;;1.05;0.70;;;;;;;;;;5072656;28;20376;-90
2023/03/09 03:42:09;;;;;;;2.00;0.80;;;;;;;;;;5072592;28;20391;-88
2023/03/09 03:44:34;;;;;;;1.60;0.90;;;;;;;;;;5071671;28;20383;-90
2023/03/09 03:47:00;;;;;;;1.70;0.90;;;;;;;;;;5058323;28;20854;-88
2023/03/09 03:49:27;;;;;;;7.07;1.00;;;;;;;;;;5072461;28;20470;-88
2023/03/09 03:51:53;;;;;;;1.90;0.70;;;;;;;;;;5054890;28;20506;-89
2023/03/09 03:54:19;;;;;;;1.95;1.00;;;;;;;;;;5069973;28;20876;-88
2023/03/09 03:56:45;;;;;;;2.33;0.75;;;;;;;;;;5050000;28;20460;-85
2023/03/09 03:59:11;;;;;;;3.88;1.05;;;;;;;;;;5070867;28;20463;-87
2023/03/09 04:01:37;;;;;;;2.22;0.88;;;;;;;;;;5071826;28;20890;-87
2023/03/09 04:04:03;;;;;;;2.00;0.90;;;;;;;;;;5071870;28;20961;-87
2023/03/09 04:06:30;;;;;;;2.45;0.98;;;;;;;;;;5071871;28;20388;-87
2023/03/09 04:08:56;;;;;;;2.43;0.90;;;;;;;;;;5071928;28;20448;-87
2023/03/09 04:11:22;;;;;;;2.80;0.73;;;;;;;;;;5071669;28;20400;-85
2023/03/09 04:13:49;;;;;;;1.80;0.65;;;;;;;;;;5071821;28;20379;-87
2023/03/09 04:16:15;;;;;;;2.65;0.80;;;;;;;;;;5071380;28;20375;-86
2023/03/09 04:18:41;;;;;;;2.58;0.88;;;;;;;;;;5069887;28;20749;-85
2023/03/09 04:21:07;;;;;;;3.22;0.80;;;;;;;;;;5071543;28;20379;-87
2023/03/09 04:23:33;;;;;;;1.95;0.70;;;;;;;;;;5071629;28;20380;-87
2023/03/09 04:26:00;;;;;;;1.98;0.70;;;;;;;;;;5070539;28;20395;-87
2023/03/09 04:28:26;;;;;;;2.00;0.52;;;;;;;;;;5071536;28;20384;-87
2023/03/09 04:30:52;;;;;;;1.55;0.40;;;;;;;;;;5071136;28;20411;-85
2023/03/09 04:33:19;;;;;;;1.60;0.60;;;;;;;;;;5071483;28;20398;-87
2023/03/09 04:35:45;;;;;;;2.15;0.45;;;;;;;;;;5071436;28;20387;-86
2023/03/09 04:38:11;;;;;;;0.90;0.30;;;;;;;;;;5071493;28;20380;-87
2023/03/09 04:40:37;;;;;;;1.23;0.30;;;;;;;;;;5049202;28;20406;-87
2023/03/09 04:43:04;;;;;;;0.90;0.30;;;;;;;;;;5050401;28;20387;-87
2023/03/09 04:45:30;;;;;;;1.00;0.38;;;;;;;;;;5062739;28;20384;-86
2023/03/09 04:47:56;;;;;;;0.60;0.30;;;;;;;;;;5070307;28;20394;-88
2023/03/09 04:50:22;;;;;;;0.70;0.30;;;;;;;;;;5070255;28;20383;-87
2023/03/09 04:52:49;;;;;;;1.60;0.28;;;;;;;;;;5053185;28;20928;-88
2023/03/09 04:55:15;;;;;;;0.65;0.30;;;;;;;;;;5071283;28;20384;-87
2023/03/09 04:57:41;;;;;;;0.20;0.20;;;;;;;;;;5071265;28;20437;-88
2023/03/09 05:00:10;;;;;;;0.97;0.30;;;;;;;;;;5071147;28;20372;-87
2023/03/09 05:02:36;;;;;;;0.63;0.20;;;;;;;;;;5057522;28;20949;-87
2023/03/09 05:05:02;;;;;;;0.60;0.20;;;;;;;;;;5071132;28;20416;-89
2023/03/09 05:07:28;;;;;;;1.10;0.20;;;;;;;;;;5071040;28;20383;-89
2023/03/09 05:09:54;;;;;;;0.52;0.20;;;;;;;;;;5069832;28;20406;-87
2023/03/09 05:12:20;;;;;;;0.20;0.20;;;;;;;;;;5054820;28;20395;-87
2023/03/09 05:14:46;;;;;;;0.47;0.30;;;;;;;;;;5071027;28;20383;-88
2023/03/09 05:17:12;;;;;;;0.50;0.20;;;;;;;;;;5061906;28;20521;-89
2023/03/09 05:19:38;;;;;;;0.50;0.30;;;;;;;;;;5070876;28;20371;-89
2023/03/09 05:22:05;;;;;;;0.38;0.20;;;;;;;;;;5060998;28;20372;-87
2023/03/09 05:24:31;;;;;;;0.50;0.20;;;;;;;;;;5071054;28;20388;-87
2023/03/09 05:26:57;;;;;;;0.28;0.20;;;;;;;;;;5049594;28;20383;-88
2023/03/09 05:29:23;;;;;;;0.30;0.30;;;;;;;;;;5055015;28;20398;-90
2023/03/09 05:31:49;;;;;;;0.50;0.30;;;;;;;;;;5035326;28;20986;-87
2023/03/09 05:34:15;;;;;;;0.20;0.20;;;;;;;;;;5040986;28;20445;-89
2023/03/09 05:36:41;;;;;;;0.17;0.17;;;;;;;;;;5039133;28;20395;-89
2023/03/09 05:39:07;;;;;;;0.50;0.20;;;;;;;;;;5035390;28;20401;-89
2023/03/09 05:41:33;;;;;;;0.88;0.30;;;;;;;;;;5034523;28;20395;-88
2023/03/09 05:43:59;;;;;;;1.23;0.50;;;;;;;;;;5034502;28;20387;-89
2023/03/09 05:46:25;;;;;;;0.90;0.60;;;;;;;;;;5033063;28;20387;-89
2023/03/09 05:48:51;;;;;;;0.60;0.30;;;;;;;;;;5057603;28;20394;-88
2023/03/09 05:51:17;;;;;;;0.88;0.30;;;;;;;;;;5048433;28;20992;-86
2023/03/09 05:53:43;;;;;;;0.82;0.30;;;;;;;;;;5045415;28;20423;-87
2023/03/09 05:56:09;;;;;;;0.68;0.20;;;;;;;;;;5040665;28;20421;-90
2023/03/09 05:58:35;;;;;;;0.80;0.40;;;;;;;;;;5041898;28;20883;-89
2023/03/09 06:01:01;;;;;;;0.55;0.30;;;;;;;;;;5048138;28;20379;-87
2023/03/09 06:03:28;;;;;;;0.77;0.30;;;;;;;;;;5043437;28;20472;-90
2023/03/09 06:06:04;;;;;;;0.98;0.50;;;;;;;;;;5038273;28;20427;-94
2023/03/09 06:08:31;;;;;;;0.77;0.32;;;;;;;;;;5044401;28;20384;-88
2023/03/09 06:11:00;;;;;;;0.63;0.20;;;;;;;;;;5035378;28;20380;-89
2023/03/09 06:13:27;;;;;;;1.20;0.50;;;;;;;;;;5047070;28;20375;-89
2023/03/09 06:15:53;;;;;;;0.90;0.40;;;;;;;;;;5033724;28;20391;-88
2023/03/09 06:18:20;;;;;;;0.60;0.30;;;;;;;;;;5033675;28;20391;-89
2023/03/09 06:20:47;;;;;;;1.80;0.47;;;;;;;;;;5037154;28;20377;-89
2023/03/09 06:23:13;;;;;;;0.80;0.40;;;;;;;;;;5043822;28;20522;-88
2023/03/09 06:25:39;;;;;;;0.50;0.30;;;;;;;;;;5035144;28;20395;-88
2023/03/09 06:28:05;;;;;;;0.80;0.40;;;;;;;;;;5047021;28;20396;-87
2023/03/09 06:30:31;;;;;;;1.87;0.33;;;;;;;;;;5051919;28;20501;-88
2023/03/09 06:32:57;;;;;;;1.73;0.63;;;;;;;;;;5052729;28;20413;-86
2023/03/09 06:35:23;;;;;;;0.85;0.40;;;;;;;;;;5036314;28;20744;-88
2023/03/09 06:37:49;;;;;;;1.27;0.40;;;;;;;;;;5049340;28;20457;-86
2023/03/09 06:40:16;;;;;;;1.90;0.60;;;;;;;;;;5045451;28;20402;-88
2023/03/09 06:42:42;;;;;;;1.52;0.50;;;;;;;;;;5044009;28;20427;-86
2023/03/09 06:45:08;;;;;;;2.05;0.50;;;;;;;;;;5043556;28;20403;-87
2023/03/09 06:47:34;;;;;;;1.40;0.50;;;;;;;;;;5052377;28;20391;-88
2023/03/09 06:50:00;;;;;;;1.58;0.70;;;;;;;;;;5048610;28;20379;-88
2023/03/09 06:52:26;;;;;;;2.27;0.70;;;;;;;;;;5051411;28;20453;-89
2023/03/09 06:54:53;;;;;;;4.20;1.00;;;;;;;;;;5050322;28;20870;-88
2023/03/09 06:57:19;;;;;;;3.72;1.00;;;;;;;;;;5061760;28;20395;-88
2023/03/09 06:59:45;;;;;;;2.58;0.82;;;;;;;;;;5062295;28;20383;-88
2023/03/09 07:02:11;;;;;;;3.78;1.50;;;;;;;;;;5050351;28;20381;-88
2023/03/09 07:04:37;;;;;;;4.83;1.10;;;;;;;;;;5046004;28;20379;-88
2023/03/09 07:07:04;;;;;;;5.25;1.27;;;;;;;;;;5035365;28;20725;-88
2023/03/09 07:09:32;;;;;;;4.43;1.00;;;;;;;;;;5048144;28;20531;-89
2023/03/09 07:11:59;;;;;;;4.90;1.58;;;;;;;;;;5064252;28;20414;-88
2023/03/09 07:14:25;;;;;;;3.78;1.27;;;;;;;;;;5069068;28;20379;-89
2023/03/09 07:16:52;;;;;;;5.85;1.50;;;;;;;;;;5072872;28;20409;-87
2023/03/09 07:19:18;;;;;;;6.13;1.83;;;;;;;;;;5072582;28;20876;-88
2023/03/09 07:21:44;;;;;;;6.07;1.58;;;;;;;;;;5071588;28;20430;-88
2023/03/09 07:24:10;;;;;;;4.40;1.45;;;;;;;;;;5072652;28;20394;-88
2023/03/09 07:26:36;;;;;;;5.40;1.60;;;;;;;;;;5072397;28;20379;-87
2023/03/09 07:29:02;;;;;;;5.95;1.45;;;;;;;;;;5072632;28;20440;-87
2023/03/09 07:31:29;;;;;;;5.50;1.52;;;;;;;;;;5039795;28;20423;-87
2023/03/09 07:33:55;;;;;;;8.90;1.88;;;;;;;;;;5055711;28;20423;-87
2023/03/09 07:36:22;;;;;;;4.43;1.42;;;;;;;;;;5070993;28;20407;-88
2023/03/09 07:38:48;;;;;;;6.82;1.50;;;;;;;;;;5071446;28;20380;-87
2023/03/09 07:41:14;;;;;;;4.88;1.60;;;;;;;;;;5040811;28;20396;-87
2023/03/09 07:43:46;;;;;;;4.67;1.40;;;;;;;;;;5071837;28;20376;-87
2023/03/09 07:46:13;;;;;;;4.38;1.55;;;;;;;;;;5078078;28;20380;-88
2023/03/09 07:48:39;;;;;;;6.00;1.95;;;;;;;;;;5077333;28;20462;-87
2023/03/09 07:51:06;;;;;;;7.43;1.77;;;;;;;;;;5063423;28;20879;-87
2023/03/09 07:53:33;;;;;;;5.03;1.88;;;;;;;;;;5067092;28;20467;-88
2023/03/09 07:56:03;;;;;;;5.95;1.80;;;;;;;;;;5071959;28;20386;-87
2023/03/09 07:58:29;;;;;;;7.13;1.88;;;;;;;;;;5071791;28;20387;-88
2023/03/09 08:00:56;;;;;;;4.28;1.67;;;;;;;;;;5071025;28;20410;-88
2023/03/09 08:03:22;;;;;;;5.53;1.50;;;;;;;;;;5069831;28;20877;-87
2023/03/09 08:05:49;;;;;;;6.47;1.75;;;;;;;;;;5071031;28;20380;-87
2023/03/09 08:08:15;;;;;;;4.88;1.50;;;;;;;;;;5073560;28;20383;-88
2023/03/09 08:10:47;;;;;;;4.35;1.40;;;;;;;;;;5068195;28;20882;-87
2023/03/09 08:13:13;;;;;;;4.65;1.48;;;;;;;;;;5061739;28;20896;-88
2023/03/09 08:15:39;;;;;;;3.95;1.25;;;;;;;;;;5057434;28;20475;-86
2023/03/09 08:18:06;;;;;;;4.15;1.40;;;;;;;;;;5069885;28;20820;-88
2023/03/09 08:20:32;;;;;;;2.47;0.93;;;;;;;;;;5071445;28;20416;-87
2023/03/09 08:22:58;;;;;;;2.42;1.05;;;;;;;;;;5071703;28;20379;-90
2023/03/09 08:25:24;;;;;;;2.53;0.95;;;;;;;;;;5070236;28;20808;-87
2023/03/09 08:27:51;;;;;;;2.25;0.90;;;;;;;;;;5071563;28;20471;-87
2023/03/09 08:30:20;;;;;;;1.60;0.50;;;;;;;;;;5071202;28;20490;-87
2023/03/09 08:32:47;;;;;;;2.28;0.85;;;;;;;;;;5071320;28;20515;-85
2023/03/09 08:35:14;;;;;;;3.10;0.80;;;;;;;;;;5071435;28;20380;-86
2023/03/09 08:37:40;;;;;;;2.47;0.82;;;;;;;;;;5070510;28;20408;-85
2023/03/09 08:40:07;;;;;;;3.25;0.95;;;;;;;;;;5049193;28;20383;-86
2023/03/09 08:42:33;;;;;;;2.50;1.00;;;;;;;;;;5071386;28;20466;-85
2023/03/09 08:45:00;;;;;;;3.33;1.00;;;;;;;;;;5048605;28;20728;-85
2023/03/09 08:47:26;;;;;;;2.10;0.90;;;;;;;;;;5043276;28;20391;-85
2023/03/09 08:49:52;;;;;;;2.60;0.80;;;;;;;;;;5067376;28;20391;-85
2023/03/09 08:52:18;;;;;;;2.45;0.85;;;;;;;;;;5053759;28;20399;-85
2023/03/09 08:54:44;;;;;;;4.63;1.33;;;;;;;;;;5071310;28;20372;-85
2023/03/09 08:57:11;;;;;;;3.20;1.20;;;;;;;;;;5071140;28;20378;-86
2023/03/09 08:59:37;;;;;;;2.53;0.90;;;;;;;;;;5068089;28;20864;-85
2023/03/09 09:02:03;;;;;;;2.90;0.90;;;;;;;;;;5057398;28;20381;-88
2023/03/09 09:04:29;;;;;;;2.30;0.90;;;;;;;;;;5060996;28;20383;-85
2023/03/09 09:06:55;;;;;;;2.85;1.00;;;;;;;;;;5075136;28;20387;-85
2023/03/09 09:09:21;;;;;;;3.88;1.10;;;;;;;;;;5075224;28;20383;-84
2023/03/09 09:11:47;;;;;;;3.13;1.00;;;;;;;;;;5075048;28;20936;-86
2023/03/09 09:14:13;;;;;;;2.88;0.90;;;;;;;;;;5074961;28;20463;-86
2023/03/09 09:16:39;;;;;;;3.92;0.90;;;;;;;;;;5074983;28;20454;-85
2023/03/09 09:19:05;;;;;;;3.70;1.20;;;;;;;;;;5074868;28;20394;-85
2023/03/09 09:21:31;;;;;;;4.88;1.30;;;;;;;;;;5074777;28;20459;-86
2023/03/09 09:23:58;;;;;;;4.63;1.25;;;;;;;;;;5074880;28;20462;-83
2023/03/09 09:26:24;;;;;;;3.95;1.20;;;;;;;;;;5073496;28;20792;-84
2023/03/09 09:28:51;;;;;;;3.55;1.23;;;;;;;;;;5074766;28;20923;-85
2023/03/09 09:31:19;;;;;;;3.60;1.15;;;;;;;;;;5074272;28;20412;-86
2023/03/09 09:33:46;;;;;;;4.63;1.05;;;;;;;;;;5074686;28;20466;-84
2023/03/09 09:36:14;;;;;;;3.22;0.90;;;;;;;;;;5074465;28;20380;-85
2023/03/09 09:38:40;;;;;;;3.22;1.02;;;;;;;;;;5074643;28;20432;-84
2023/03/09 09:41:08;;;;;;;3.15;0.93;;;;;;;;;;5074347;28;20379;-85
2023/03/09 09:43:34;;;;;;;2.72;0.88;;;;;;;;;;5065510;28;20430;-85
2023/03/09 09:46:01;;;;;;;4.68;1.17;;;;;;;;;;5054552;28;20378;-84
2023/03/09 09:48:28;;;;;;;4.20;1.05;;;;;;;;;;5059120;28;20887;-85
2023/03/09 09:51:15;;;;;;;3.38;1.10;;;;;;;;;;5067346;28;20385;-85
2023/03/09 09:53:50;;;;;;;3.28;1.13;;;;;;;;;;5047338;28;20388;-85
2023/03/09 09:56:18;;;;;;;4.53;1.15;;;;;;;;;;5074083;28;20380;-86
2023/03/09 09:58:44;;;;;;;4.25;1.10;;;;;;;;;;5074184;28;20379;-84
2023/03/09 10:01:18;;;;;;;5.00;1.10;;;;;;;;;;5073052;28;20376;-84
2023/03/09 10:03:46;;;;;;;3.90;1.00;;;;;;;;;;5059745;28;20372;-84
2023/03/09 10:06:25;;;;;;;4.22;0.95;;;;;;;;;;5073259;28;20388;-82
2023/03/09 10:09:23;;;;;;;3.47;0.90;;;;;;;;;;5075161;28;20526;-84
2023/03/09 10:11:54;;;;;;;4.50;1.20;;;;;;;;;;5063575;28;20401;-86
2023/03/09 10:14:24;;;;;;;4.73;1.20;;;;;;;;;;5083033;28;20473;-86
2023/03/09 10:17:00;;;;;;;4.10;1.20;;;;;;;;;;5086854;28;20383;-86
2023/03/09 10:19:32;;;;;;;4.70;1.30;;;;;;;;;;5086375;28;20379;-87
2023/03/09 10:21:59;;;;;;;3.63;1.30;;;;;;;;;;5080725;28;20380;-85
2023/03/09 10:24:27;;;;;;;5.20;1.48;;;;;;;;;;5077097;28;20378;-86
2023/03/09 10:26:56;;;;;;;5.00;1.30;;;;;;;;;;5065986;28;20385;-86
2023/03/09 10:29:32;;;;;;;3.83;1.20;;;;;;;;;;5074095;28;20740;-87
2023/03/09 10:32:04;;;;;;;4.03;1.47;;;;;;;;;;5072485;28;20912;-86
2023/03/09 10:34:33;;;;;;;3.67;1.40;;;;;;;;;;5073775;28;20375;-87
2023/03/09 10:37:04;;;;;;;5.63;1.30;;;;;;;;;;5072380;28;20745;-86
2023/03/09 10:39:34;;;;;;;4.17;1.43;;;;;;;;;;5073534;28;20372;-86
2023/03/09 10:42:11;;;;;;;4.82;1.50;;;;;;;;;;5066593;28;20902;-85
2023/03/09 10:44:37;;;;;;;3.73;1.20;;;;;;;;;;5052880;28;20430;-85
2023/03/09 10:47:03;;;;;;;3.65;1.40;;;;;;;;;;5052409;28;20392;-87
2023/03/09 10:49:29;;;;;;;5.13;1.13;;;;;;;;;;5073232;28;20883;-84
2023/03/09 10:52:00;;;;;;;2.50;0.93;;;;;;;;;;5054238;28;20405;-82
2023/03/09 10:54:27;;;;;;;5.07;1.15;;;;;;;;;;5051815;28;20420;-81
2023/03/09 10:56:53;;;;;;;2.47;1.00;;;;;;;;;;5072671;28;20387;-81
2023/03/09 10:59:21;;;;;;;3.85;0.95;;;;;;;;;;5060336;28;20381;-81
2023/03/09 11:01:54;;;;;;;4.30;1.20;;;;;;;;;;5069854;28;20451;-81
2023/03/09 11:04:23;;;;;;;5.85;2.22;;;;;;;;;;5072834;28;20441;-82
2023/03/09 11:06:50;;;;;;;4.25;1.08;;;;;;;;;;5061473;28;20762;-82
2023/03/09 11:09:20;;;;;;;3.45;1.30;;;;;;;;;;5057394;28;20384;-83
2023/03/09 11:11:48;;;;;;;3.00;1.10;;;;;;;;;;5072651;28;20973;-82
2023/03/09 11:14:26;;;;;;;3.88;1.10;;;;;;;;;;5072573;28;20940;-81
2023/03/09 11:16:53;;;;;;;3.73;1.10;;;;;;;;;;5072770;28;20422;-82
2023/03/09 11:19:19;;;;;;;4.25;0.98;;;;;;;;;;5072667;28;20379;-82
2023/03/09 11:21:58;;;;;;;3.03;1.02;;;;;;;;;;5072499;28;20387;-82
2023/03/09 11:24:29;;;;;;;3.58;1.10;;;;;;;;;;5072645;28;20383;-82
2023/03/09 11:26:58;;;;;;;2.67;1.00;;;;;;;;;;5073907;28;20442;-83
2023/03/09 11:29:42;;;;;;;4.30;1.00;;;;;;;;;;5072394;28;20415;-82
2023/03/09 11:32:09;;;;;;;3.25;0.90;;;;;;;;;;5072348;28;20407;-82
2023/03/09 11:34:36;;;;;;;2.65;0.98;;;;;;;;;;5072236;28;20470;-82
2023/03/09 11:37:12;;;;;;;3.20;1.00;;;;;;;;;;5072233;28;20892;-82
2023/03/09 11:39:42;;;;;;;2.75;0.80;;;;;;;;;;5071016;28;20380;-82
2023/03/09 11:42:12;;;;;;;2.80;1.00;;;;;;;;;;5072228;28;20376;-82
2023/03/09 11:44:40;;;;;;;6.90;1.58;;;;;;;;;;5072059;28;20384;-82
2023/03/09 11:47:26;;;;;;;16.40;4.43;;;;;;;;;;5072013;28;20383;-82
2023/03/09 11:49:54;;;;;;;3.85;1.40;;;;;;;;;;5070822;28;20383;-82
2023/03/09 11:52:26;;;;;;;2.53;1.10;;;;;;;;;;5061042;28;20400;-82
2023/03/09 11:54:54;;;;;;;2.95;0.90;;;;;;;;;;5071954;28;20382;-82
2023/03/09 11:57:21;;;;;;;3.22;1.05;;;;;;;;;;5071969;28;20733;-82
2023/03/09 11:59:53;;;;;;;2.80;0.88;;;;;;;;;;5071816;28;20392;-82
2023/03/09 12:02:27;;;;;;;2.50;1.00;;;;;;;;;;5070720;28;20384;-82
2023/03/09 12:04:53;;;;;;;4.18;1.13;;;;;;;;;;5071595;28;20852;-83
2023/03/09 12:07:20;;;;;;;3.33;0.95;;;;;;;;;;5071680;28;20431;-82
2023/03/09 12:09:58;;;;;;;3.38;0.93;;;;;;;;;;5071670;28;20761;-82
2023/03/09 12:12:27;;;;;;;3.05;0.88;;;;;;;;;;5071588;28;20408;-82
2023/03/09 12:15:05;;;;;;;3.42;1.10;;;;;;;;;;5071608;28;20380;-82
2023/03/09 12:17:35;;;;;;;3.13;1.13;;;;;;;;;;5072491;28;20368;-83
2023/03/09 12:20:02;;;;;;;4.25;1.27;;;;;;;;;;5070420;28;20942;-82
2023/03/09 12:22:33;;;;;;;3.47;1.40;;;;;;;;;;5071417;28;20428;-83
2023/03/09 12:25:03;;;;;;;4.20;1.30;;;;;;;;;;5072850;28;20383;-83
2023/03/09 12:27:30;;;;;;;4.30;1.23;;;;;;;;;;5070089;28;20403;-83
2023/03/09 12:30:07;;;;;;;3.22;1.00;;;;;;;;;;5071097;28;20916;-83
2023/03/09 12:32:35;;;;;;;3.13;0.90;;;;;;;;;;5071286;28;20479;-82
2023/03/09 12:35:05;;;;;;;2.67;0.93;;;;;;;;;;5071308;28;20470;-83
2023/03/09 12:37:31;;;;;;;3.78;1.05;;;;;;;;;;5071336;28;20390;-82
2023/03/09 12:40:15;;;;;;;4.32;1.20;;;;;;;;;;5070876;28;20387;-81
2023/03/09 12:42:42;;;;;;;3.95;0.80;;;;;;;;;;5069927;28;20391;-82
2023/03/09 12:45:11;;;;;;;2.72;1.02;;;;;;;;;;5071279;28;20398;-82
2023/03/09 12:47:46;;;;;;;4.68;1.63;;;;;;;;;;5071252;28;20391;-82
2023/03/09 12:50:31;;;;;;;2.63;1.10;;;;;;;;;;5068841;28;20383;-81
2023/03/09 12:53:00;;;;;;;2.92;0.90;;;;;;;;;;5051354;28;20416;-82
2023/03/09 12:55:35;;;;;;;3.05;1.15;;;;;;;;;;5071247;28;20403;-84
2023/03/09 12:58:27;;;;;;;3.55;1.10;;;;;;;;;;5053699;28;20394;-82
2023/03/09 13:00:56;;;;;;;3.83;0.98;;;;;;;;;;5059613;28;20376;-81
2023/03/09 13:03:34;;;;;;;3.63;0.90;;;;;;;;;;5063971;28;20464;-82
2023/03/09 13:06:02;;;;;;;3.92;1.30;;;;;;;;;;5067288;28;20380;-83
2023/03/09 13:08:35;;;;;;;2.45;0.95;;;;;;;;;;5071054;28;20407;-82
2023/03/09 13:11:20;;;;;;;3.55;1.05;;;;;;;;;;5071409;28;20763;-82
2023/03/09 13:13:46;;;;;;;3.83;1.33;;;;;;;;;;5070869;28;20432;-82
2023/03/09 13:16:35;;;;;;;3.13;1.20;;;;;;;;;;5067251;28;20423;-82
2023/03/09 13:19:19;;;;;;;3.90;1.20;;;;;;;;;;5069616;28;20406;-81
2023/03/09 13:21:46;;;;;;;3.72;1.10;;;;;;;;;;5070832;28;20368;-82
2023/03/09 13:24:18;;;;;;;3.58;1.05;;;;;;;;;;5071108;28;20376;-82
2023/03/09 13:26:45;;;;;;;4.45;1.20;;;;;;;;;;5071153;28;20383;-82
2023/03/09 13:29:15;;;;;;;3.42;1.10;;;;;;;;;;5070779;28;20383;-82
2023/03/09 13:31:42;;;;;;;3.40;1.00;;;;;;;;;;5069831;28;20419;-82
2023/03/09 13:34:28;;;;;;;5.32;1.63;;;;;;;;;;5070774;28;20380;-84
2023/03/09 13:36:56;;;;;;;3.50;1.20;;;;;;;;;;5059998;28;20377;-83
2023/03/09 13:39:24;;;;;;;2.78;1.15;;;;;;;;;;5065091;28;20390;-83
2023/03/09 13:41:50;;;;;;;3.00;1.03;;;;;;;;;;5057459;28;20407;-83
2023/03/09 13:44:18;;;;;;;4.45;1.33;;;;;;;;;;5066381;28;20732;-82
2023/03/09 13:46:46;;;;;;;2.70;1.08;;;;;;;;;;5070853;28;20399;-83
2023/03/09 13:49:22;;;;;;;3.30;1.00;;;;;;;;;;5074018;28;20387;-82
2023/03/09 13:51:52;;;;;;;3.38;1.08;;;;;;;;;;5081672;28;20487;-82
2023/03/09 13:54:25;;;;;;;3.80;1.40;;;;;;;;;;5074543;28;20445;-84
2023/03/09 13:57:02;;;;;;;3.92;1.05;;;;;;;;;;5060237;28;20381;-83
2023/03/09 13:59:31;;;;;;;3.05;1.10;;;;;;;;;;5075012;28;20376;-84
2023/03/09 14:02:01;;;;;;;2.35;1.00;;;;;;;;;;5068931;28;20511;-82
2023/03/09 14:04:27;;;;;;;3.25;0.93;;;;;;;;;;5059859;28;20897;-82
2023/03/09 14:06:55;;;;;;;3.03;1.00;;;;;;;;;;5073586;28;20448;-82
2023/03/09 14:09:21;;;;;;;3.38;1.27;;;;;;;;;;5072838;28;20881;-83
2023/03/09 14:11:47;;;;;;;2.87;1.07;;;;;;;;;;5061231;28;20410;-82
2023/03/09 14:14:17;;;;;;;3.20;1.00;;;;;;;;;;5074030;28;20376;-82
2023/03/09 14:16:45;;;;;;;3.42;1.20;;;;;;;;;;5073200;28;20438;-82
2023/03/09 14:19:20;;;;;;;2.90;1.10;;;;;;;;;;5073919;28;20382;-82
2023/03/09 14:21:50;;;;;;;3.55;1.20;;;;;;;;;;5073752;28;20454;-82
2023/03/09 14:24:29;;;;;;;3.42;1.00;;;;;;;;;;5070702;28;20379;-82
2023/03/09 14:26:55;;;;;;;3.17;1.07;;;;;;;;;;5073660;28;20961;-82
2023/03/09 14:29:28;;;;;;;2.55;1.10;;;;;;;;;;5073647;28;20416;-82
2023/03/09 14:32:13;;;;;;;4.07;1.30;;;;;;;;;;5073324;28;20524;-83
2023/03/09 14:34:39;;;;;;;4.07;1.45;;;;;;;;;;5073552;28;20454;-82
2023/03/09 14:37:16;;;;;;;4.50;1.10;;;;;;;;;;5073450;28;20460;-82
2023/03/09 14:39:42;;;;;;;3.83;0.90;;;;;;;;;;5073309;28;20462;-82
2023/03/09 14:42:14;;;;;;;2.90;1.20;;;;;;;;;;5073484;28;20459;-82
2023/03/09 14:44:43;;;;;;;2.92;1.08;;;;;;;;;;5073251;28;20445;-82
2023/03/09 14:47:19;;;;;;;3.40;1.17;;;;;;;;;;5073409;28;20856;-84
2023/03/09 14:49:49;;;;;;;3.17;0.90;;;;;;;;;;5073218;28;20376;-82